• Join FlightAware (Why Join?)
  • Login
  • US Flag 
05:39AM EDT


 

Airport Tracker/Info


-or-


 

Live Flight TrackerFlight Track Log ✈ UAL4553 ✈ 01-May-2013 ✈ KGSP - KIAH

Flight Track Log - Related Links

Times and Time Zones

All times are in EDT time to prevent confusion due to time zone crossing. See the UAL4553 flight status page for this flight to view local times or setup timezone preferences in your user account.

Time Position Orientation Groundspeed Altitude Reporting Facility
EDT Latitude Longitude Course Direction KTS MPH feet Rate Location/Type
06:52PM 34.9503 -82.2725 283° West 239 275 5,200  Level Atlanta Center
06:53PM 34.9536 -82.3586 273° West 268 308 6,800 1,980 Climbing Atlanta Center
06:54PM 34.9021 -82.7081 276° West  Level FlightAware Approximate
06:54PM 34.9528 -82.4522 269° West 274 315 9,200  Level Atlanta Center
06:55PM 34.9124 -82.8318 276° West  Level FlightAware Approximate
06:55PM 34.9519 -82.5564 269° West 291 335 11,000  Level Atlanta Center
06:56PM 34.9167 -82.9558 270° West  Level FlightAware Approximate
06:56PM 34.9511 -82.6653 269° West 310 357 12,500  Level Atlanta Center
06:57PM 34.9522 -82.7819 271° West 324 373 14,000 1,500 Climbing Atlanta Center
06:58PM 34.9514 -82.8983 270° West 337 388 15,500 1,620 Climbing Atlanta Center
06:59PM 34.9525 -83.0303 271° West 357 411 17,300 1,500 Climbing Atlanta Center
07:00PM 34.9514 -83.1519 269° West 362 417 18,500 1,500 Climbing Atlanta Center
07:01PM 34.9481 -83.2786 268° West 362 417 20,300 1,800 Climbing Atlanta Center
07:02PM 34.9194 -83.3803 251° West 335 386 22,200 1,500 Climbing Atlanta Center
07:03PM 34.8742 -83.4844 242° Southwest 343 395 23,400 1,080 Climbing Atlanta Center
07:04PM 34.8286 -83.5858 241° Southwest 362 417 24,400 1,200 Climbing Atlanta Center
07:05PM 34.7831 -83.6972 244° Southwest 372 428 25,800 1,380 Climbing Atlanta Center
07:06PM 34.7353 -83.8036 241° Southwest 367 422 27,200 1,320 Climbing Atlanta Center
07:07PM 34.6811 -83.9225 241° Southwest 373 429 28,500 1,200 Climbing Atlanta Center
07:08PM 34.6375 -84.0286 243° Southwest 365 420 29,700 1,200 Climbing Atlanta Center
07:09PM 34.5914 -84.1322 242° Southwest 360 414 30,900 1,200 Climbing Atlanta Center
07:10PM 34.5456 -84.2406 243° Southwest 360 414 32,100 1,200 Climbing Atlanta Center
07:11PM 34.4972 -84.3439 240° Southwest 360 414 33,400 900 Climbing Atlanta Center
07:12PM 34.4531 -84.4494 243° Southwest 360 414 34,000 600 Climbing Atlanta Center
07:13PM 34.4025 -84.5600 241° Southwest 370 426 34,700 900 Climbing Atlanta Center
07:14PM 34.3519 -84.6703 241° Southwest 376 433 35,800 600 Climbing Atlanta Center
07:15PM 34.3056 -84.7806 243° Southwest 370 426 36,000 60 Climbing Atlanta Center
07:16PM 34.2547 -84.8933 241° Southwest 381 438 36,000  Level Atlanta Center
07:17PM 34.1975 -85.0133 240° Southwest 400 460 36,000  Level Atlanta Center
07:18PM 34.1464 -85.1256 241° Southwest 395 455 36,000  Level Atlanta Center
07:19PM 34.0953 -85.2378 241° Southwest 395 455 36,000  Level Atlanta Center
07:20PM 34.0442 -85.3475 241° Southwest 388 447 36,000  Level Atlanta Center
07:21PM 33.9928 -85.4619 242° Southwest 388 447 36,000  Level Atlanta Center
07:22PM 33.9392 -85.5761 241° Southwest 394 453 36,000  Level Atlanta Center
07:23PM 33.8919 -85.6831 242° Southwest 394 453 36,000  Level Atlanta Center
07:24PM 33.8317 -85.8044 239° Southwest 399 459 36,000  Level Atlanta Center
07:25PM 33.7736 -85.9256 240° Southwest 399 459 36,000  Level Atlanta Center
07:26PM 33.7175 -86.0467 241° Southwest 404 465 36,000  Level Atlanta Center
07:27PM 33.6611 -86.1653 240° Southwest 410 472 36,000  Level Atlanta Center
07:28PM 33.6047 -86.2861 241° Southwest 410 472 36,000  Level Atlanta Center
07:29PM 33.5481 -86.4092 241° Southwest 410 472 36,000  Level Atlanta Center
07:30PM 33.4894 -86.5272 239° Southwest 415 478 36,000  Level Atlanta Center
07:31PM 33.4328 -86.6475 241° Southwest 415 478 36,000  Level Atlanta Center
07:32PM 33.3758 -86.7700 241° Southwest 415 478 36,000  Level Atlanta Center
07:33PM 33.3147 -86.8900 239° Southwest 421 484 36,000  Level Atlanta Center
07:34PM 33.2658 -87.0053 243° Southwest 421 484 36,000  Level Atlanta Center
07:35PM 33.2025 -87.1247 238° Southwest 427 491 36,000  Level Atlanta Center
07:37PM 33.0750 -87.3922 240° Southwest 429 494 36,000  Level Memphis Center
07:38PM 33.0169 -87.5081 239° Southwest 422 486 36,000  Level Memphis Center
07:39PM 32.9592 -87.6289 240° Southwest 422 486 36,000  Level Memphis Center
07:40PM 32.9011 -87.7469 240° Southwest 422 486 36,000  Level Memphis Center
07:41PM 32.8411 -87.8650 239° Southwest 422 486 36,000  Level Memphis Center
07:42PM 32.7892 -87.9875 243° Southwest 422 486 36,000  Level Memphis Center
07:43PM 32.7350 -88.1025 241° Southwest 417 480 36,000  Level Memphis Center
07:44PM 32.6933 -88.2269 248° West 412 474 36,000  Level Memphis Center
07:45PM 32.6536 -88.3536 250° West 406 467 36,000  Level Memphis Center
07:46PM 32.6139 -88.4803 250° West 406 467 36,000  Level Memphis Center
07:47PM 32.5719 -88.6069 249° West 413 475 36,000  Level Memphis Center
07:48PM 32.5319 -88.7358 250° West 418 481 36,000  Level Memphis Center
07:49PM 32.4917 -88.8622 249° West 413 475 36,000  Level Memphis Center
07:50PM 32.4514 -88.9911 250° West 413 475 36,000  Level Memphis Center
07:51PM 32.4089 -89.1197 249° West 413 475 36,000  Level Memphis Center
07:52PM 32.3664 -89.2481 249° West 418 481 36,000  Level Memphis Center
07:53PM 32.3236 -89.3764 249° West 418 481 36,000  Level Memphis Center
07:54PM 32.2806 -89.5072 249° West 418 481 36,000  Level Memphis Center
07:55PM 32.2378 -89.6378 249° West 423 487 36,000  Level Memphis Center
07:56PM 32.1944 -89.7706 249° West 428 493 36,000  Level Memphis Center
07:57PM 32.1514 -89.9058 249° West 436 502 36,000  Level Memphis Center
07:58PM 32.1078 -90.0361 248° West 436 502 36,000  Level Memphis Center
07:59PM 32.0622 -90.1686 248° West 436 502 36,000  Level Memphis Center
08:00PM 32.0186 -90.2986 248° West 431 496 36,000  Level Memphis Center
08:01PM 31.9725 -90.4333 248° West 437 503 36,000  Level Memphis Center
08:03PM 31.9047 -90.6389 249° West 438 504 36,000  Level Houston Center
08:04PM 31.8606 -90.7731 249° West 440 506 36,000  Level Houston Center
08:05PM 31.8181 -90.8975 248° West 440 506 36,000  Level Houston Center
08:06PM 31.7681 -91.0408 248° West 442 509 36,000  Level Houston Center
08:07PM 31.7353 -91.2000 256° West 447 514 36,000  Level Houston Center
08:08PM 31.7169 -91.3431 261° West 443 510 36,000  Level Houston Center
08:09PM 31.7014 -91.4842 263° West 438 504 36,000  Level Houston Center
08:10PM 31.6847 -91.6231 262° West 432 497 36,000  Level Houston Center
08:11PM 31.6094 -91.7153 226° Southwest 415 478 36,000  Level Houston Center
08:12PM 31.4972 -91.7464 193° South 413 475 36,000  Level Houston Center
08:13PM 31.3631 -91.7944 197° South 419 482 36,000  Level Houston Center
08:14PM 31.2483 -91.8361 197° South 428 493 36,000  Level Houston Center
08:15PM 31.1350 -91.8761 197° South 424 488 36,000  Level Houston Center
08:16PM 31.0194 -91.9164 197° South 427 491 36,000  Level Houston Center
08:17PM 30.8997 -91.9492 193° South 438 504 36,000  Level Houston Center
08:19PM 30.7926 -91.9939 200° South  Level FlightAware Approximate
08:19PM 30.7792 -91.9761 200° South 438 504 36,000  Level Houston Center
08:20PM 30.6600 -92.0111 194° South 439 505 36,000  Level Houston Center
08:21PM 30.5428 -92.0569 199° South 440 506 36,000  Level Houston Center
08:22PM 30.4244 -92.1628 218° Southwest 446 513 36,000  Level Houston Center
08:23PM 30.3350 -92.2614 224° Southwest 441 507 36,000 -60 Level Houston Center
08:25PM 30.1542 -92.4350 220° Southwest 440 506 35,900  Descending Houston Center
08:26PM 30.0600 -92.5272 220° Southwest 441 507 36,000  Climbing Houston Center
08:27PM 29.9478 -92.6353 220° Southwest 438 504 36,000  Level Houston Center
08:28PM 29.8528 -92.7244 219° Southwest 439 505 36,000  Level Houston Center
08:29PM 29.7589 -92.8150 220° Southwest 439 505 36,000  Level Houston Center
08:30PM 29.6686 -92.9014 220° Southwest 427 491 36,000  Level Houston Center
08:31PM 29.5808 -92.9853 220° Southwest 414 476 36,000 -480 Level Houston Center
08:32PM 29.5017 -93.0842 227° Southwest 426 490 35,100 -1,200 Descending Houston Center
08:33PM 29.4903 -93.2175 264° West 428 493 33,600 -1,500 Descending Houston Center
08:34PM 29.4961 -93.3492 273° West 414 476 32,100 -1,860 Descending Houston Center
08:35PM 29.5025 -93.5128 273° West 426 490 29,800 -2,640 Descending Houston Center
08:36PM 29.5078 -93.6483 273° West 426 490 26,700 -3,300 Descending Houston Center
08:37PM 29.5133 -93.7789 273° West 411 473 23,000 -3,480 Descending Houston Center
08:38PM 29.5164 -93.8967 272° West 374 430 19,600 -3,000 Descending Houston Center
08:39PM 29.5208 -94.0072 273° West 350 403 16,900 -2,700 Descending Houston Center
08:39PM 29.5231 -94.0461 274° West 338 389 16,100 -2,160 Descending Houston Center
08:40PM 29.5253 -94.1147 272° West 340 391 14,700 -1,800 Descending Houston Center
08:41PM 29.5294 -94.2336 272° West 326 375 13,000 -840 Descending Houston Center
08:42PM 29.5331 -94.3386 272° West 328 377 13,000 -540 Level Houston Center
08:43PM 29.5661 -94.4211 295° West 284 327 12,000 -1,380 Descending Houston Center
08:44PM 29.5997 -94.4986 297° West 273 314 10,200 -2,040 Descending Houston Center
08:45PM 29.6319 -94.5739 296° West 265 305 7,900 -1,920 Descending Houston Center
08:46PM 29.6686 -94.6644 295° West 265 305 6,300 -960 Descending Houston Center
08:47PM 29.6961 -94.7272 297° West 265 305 6,000 -180 Descending Houston Center
08:48PM 29.7356 -94.8183 297° West 266 306 6,000  Level Houston Center
08:49PM 29.7664 -94.8928 296° West 268 308 6,000  Level Houston Center
08:50PM 29.8003 -94.9706 297° West 267 307 6,000  Level Houston Center
08:51PM 29.8322 -95.0456 296° West 266 306 6,000  Level Houston Center
08:52PM 29.8639 -95.1264 294° West 266 306 6,000  Level Houston Center
08:53PM 29.8958 -95.1983 297° West 267 307 6,000  Level Houston Center
08:55PM 29.8994 -95.3011 272° West 274 315 6,000  Level Houston Center
08:56PM 29.9003 -95.3886 271° West 275 316 6,000 -300 Level Houston Center
08:57PM 29.9003 -95.4728 270° West 268 308 5,500 -1,080 Descending Houston Center
08:58PM 29.9017 -95.5575 271° West 266 306 3,900 -1,320 Descending Houston Center
08:58PM 29.9511 -95.5739 344° North 230 265 3,000 -1,020 Descending Houston Center